Pike, Minnesota
Current Conditions -  °F | °C
As of 10:33 PM on Friday 19 Dec 2014 (Local Time) from KELO Reporting Station
Light Snow Light Snow  
Wind Chill: 17°   Ceiling: 1600
Heat Index: 23°   Visibility: 3mi
Dew Point: 21°   Wind: 5mph
Humidity: 93%   Direction: 160°SSE
Pressure: 30.11"   Gusts: NA
Location:  47.691°N, 92.2161°W
Report Text: KELO 200433Z AUTO 16004KT 3SM -SN BKN016 M05/M06 A3011 RMK AO2
Loading
Personal Weather Stations






























Interactive Weather Map New forecast layout! Learn more

10-Day Weather Forecast

Advertisements
Track Severe Weather on mobile